Time,TemperatureF,DewpointF,PressureIn,WindDirection,WindDirectionDegrees,WindSpeedMPH,WindSpeedGustMPH,Humidity,HourlyPrecipIn,Conditions,Clouds,dailyrainin,SoftwareType,DateUTC
2013-05-21 00:00:00,41.1,34.8,30.49,East,83,0.0,0.0,78,0.00,,---,0.00,VWS V14.01,2013-05-21 08:00:00,
2013-05-21 00:30:00,40.7,34.7,30.50,East,83,0.0,0.0,79,0.00,,---,0.00,VWS V14.01,2013-05-21 08:30:00,
2013-05-21 03:30:00,39.7,34.7,30.47,East,83,0.0,0.0,82,0.00,,---,0.00,VWS V14.01,2013-05-21 11:30:00,
2013-05-21 06:30:00,37.9,34.1,30.43,East,83,0.0,0.0,86,0.00,,---,0.00,VWS V14.01,2013-05-21 14:30:00,
2013-05-21 07:04:00,38.3,34.5,30.43,East,83,0.0,0.0,86,0.00,,---,0.00,VWS V14.01,2013-05-21 15:04:00,
2013-05-21 08:00:00,41.0,35.9,30.42,East,83,0.0,0.0,82,0.00,,---,0.00,VWS V14.01,2013-05-21 16:00:00,
2013-05-21 08:30:00,42.3,36.3,30.42,East,82,1.0,3.0,79,0.00,,---,0.00,VWS V14.01,2013-05-21 16:30:00,
2013-05-21 10:00:00,44.5,37.1,30.40,NE,49,1.0,3.0,75,0.00,,---,0.00,VWS V14.01,2013-05-21 18:00:00,
2013-05-21 10:30:00,45.4,38.0,30.39,NE,48,2.0,3.0,75,0.00,,---,0.00,VWS V14.01,2013-05-21 18:30:00,
2013-05-21 11:07:00,45.4,38.0,30.39,NE,34,1.0,5.0,75,0.00,,---,0.00,VWS V14.01,2013-05-21 19:07:00,
2013-05-21 11:30:00,45.0,38.2,30.38,NE,34,2.0,4.0,77,0.00,,---,0.00,VWS V14.01,2013-05-21 19:30:00,
2013-05-21 13:30:00,46.3,36.3,30.36,NE,37,2.0,3.0,68,0.00,,---,0.00,VWS V14.01,2013-05-21 21:30:00,
2013-05-21 14:04:00,47.0,36.6,30.36,NNE,17,5.0,5.0,67,0.00,,---,0.00,VWS V14.01,2013-05-21 22:04:00,
2013-05-21 15:00:00,47.0,38.8,30.34,NE,34,2.0,5.0,73,0.00,,---,0.00,VWS V14.01,2013-05-21 23:00:00,
2013-05-21 15:34:00,47.4,39.2,30.34,NE,41,3.0,6.0,73,0.00,,---,0.00,VWS V14.01,2013-05-21 23:34:00,
2013-05-21 16:00:00,47.4,39.9,30.33,NE,34,0.0,5.0,75,0.00,,---,0.00,VWS V14.01,2013-05-22 00:00:00,
2013-05-21 17:00:00,48.2,39.2,30.29,NE,34,2.0,4.0,71,0.00,,---,0.00,VWS V14.01,2013-05-22 01:00:00,
2013-05-21 17:30:00,48.1,38.8,30.29,NE,35,0.0,4.0,70,0.00,,---,0.00,VWS V14.01,2013-05-22 01:30:00,
2013-05-21 18:04:00,48.0,39.1,30.28,NE,38,4.0,4.0,71,0.00,,---,0.00,VWS V14.01,2013-05-22 02:04:00,
2013-05-21 19:30:00,48.0,39.4,30.25,NE,38,0.0,3.0,72,0.00,,---,0.00,VWS V14.01,2013-05-22 03:30:00,
2013-05-21 20:00:00,49.3,39.6,30.24,NE,40,0.0,3.0,69,0.00,,---,0.00,VWS V14.01,2013-05-22 04:00:00,
2013-05-21 20:34:00,49.2,40.2,30.23,NE,39,0.0,3.0,71,0.00,,---,0.00,VWS V14.01,2013-05-22 04:34:00,
2013-05-21 22:00:00,46.2,38.0,30.21,NE,43,0.0,0.0,73,0.00,,---,0.00,VWS V14.01,2013-05-22 06:00:00,